Time;durP1;ratioP1;P1;durP2;ratioP2;P2;SDS_P1;SDS_P2;PMS_P1;PMS_P2;Temp;Humidity;BMP_temperature;BMP_pressure;BME280_temperature;BME280_humidity;BME280_pressure;Samples;Min_cycle;Max_cycle;Signal;HPM_P1;HPM_P2
2022/12/15 00:39:12;;;;;;;18.20;12.57;;;-3.30;99.90;;;;;;5088678;28;20257;-65
2022/12/15 00:41:37;;;;;;;16.93;11.83;;;-3.20;99.90;;;;;;5092776;28;20276;-62
2022/12/15 00:44:03;;;;;;;15.30;12.50;;;-3.30;99.90;;;;;;5074928;28;20185;-63
2022/12/15 01:22:05;;;;;;;17.40;12.87;;;-3.40;99.90;;;;;;5092032;28;20308;-65
2022/12/15 01:24:31;;;;;;;14.47;11.73;;;-3.40;99.90;;;;;;5087681;28;20216;-63
2022/12/15 01:26:57;;;;;;;25.77;16.93;;;-3.40;99.90;;;;;;5090786;28;20220;-63
2022/12/15 01:29:23;;;;;;;13.33;11.97;;;-3.40;99.90;;;;;;5087957;28;20189;-63
2022/12/15 01:31:49;;;;;;;21.93;13.80;;;-3.50;99.90;;;;;;5088913;28;20208;-64
2022/12/15 01:34:16;;;;;;;25.57;14.43;;;-3.50;99.90;;;;;;5087222;28;20209;-63
2022/12/15 01:36:42;;;;;;;29.27;14.13;;;-3.50;99.90;;;;;;5084902;28;20576;-63
2022/12/15 01:39:07;;;;;;;30.30;16.43;;;-3.40;99.90;;;;;;5092280;28;20279;-63
2022/12/15 01:41:33;;;;;;;27.30;14.90;;;-3.50;99.90;;;;;;5074101;28;20204;-63
2022/12/15 01:44:22;;;;;;;21.73;14.63;;;-3.50;99.90;;;;;;5080884;28;20215;-63
2022/12/15 01:46:50;;;;;;;15.77;11.60;;;-3.50;99.90;;;;;;5085192;28;20527;-63
2022/12/15 01:49:30;;;;;;;19.40;13.60;;;-3.50;99.90;;;;;;5082812;28;20296;-63
2022/12/15 01:51:59;;;;;;;22.83;13.43;;;-3.50;99.90;;;;;;5090453;28;20184;-63
2022/12/15 01:54:41;;;;;;;26.10;20.90;;;-3.50;99.90;;;;;;5090955;28;20181;-62
2022/12/15 01:57:12;;;;;;;13.57;10.97;;;-3.60;99.90;;;;;;5078285;28;20198;-63
2022/12/15 01:59:45;;;;;;;18.00;12.93;;;-3.60;99.90;;;;;;5104811;28;20182;-62
2022/12/15 02:02:13;;;;;;;23.53;15.70;;;-3.50;99.90;;;;;;5090647;28;20178;-62
2022/12/15 02:04:40;;;;;;;23.97;16.03;;;-3.50;99.90;;;;;;5083605;28;20189;-61
2022/12/15 02:07:09;;;;;;;16.57;15.03;;;-3.50;99.90;;;;;;5091891;28;20204;-62
2022/12/15 02:09:35;;;;;;;13.77;10.90;;;-3.50;99.90;;;;;;5090506;28;20549;-62
2022/12/15 02:12:19;;;;;;;22.63;13.60;;;-3.60;99.90;;;;;;5092395;28;20202;-62
2022/12/15 02:15:09;;;;;;;14.93;11.73;;;-3.60;99.90;;;;;;5090557;28;20177;-62
2022/12/15 02:17:56;;;;;;;11.43;10.23;;;-3.60;99.90;;;;;;5081389;28;20305;-62
2022/12/15 02:20:34;;;;;;;14.70;12.50;;;-3.60;99.90;;;;;;5088529;28;20185;-62
2022/12/15 02:23:05;;;;;;;23.33;14.67;;;-3.60;99.90;;;;;;5080489;28;20285;-62
2022/12/15 02:26:07;;;;;;;19.70;14.67;;;-3.60;99.90;;;;;;5089787;28;20220;-62
2022/12/15 02:29:14;;;;;;;16.73;10.60;;;-3.60;99.90;;;;;;5084215;28;20573;-62
2022/12/15 02:31:48;;;;;;;16.63;10.57;;;-3.70;99.90;;;;;;5105099;28;20185;-62
2022/12/15 02:34:30;;;;;;;14.23;12.77;;;-3.70;99.90;;;;;;5087438;28;20185;-62
2022/12/15 02:37:00;;;;;;;15.93;12.97;;;-3.70;99.90;;;;;;5080562;28;20207;-62
2022/12/15 02:39:26;;;;;;;17.47;12.03;;;-3.70;99.90;;;;;;5081160;28;20189;-62
2022/12/15 02:41:52;;;;;;;24.37;12.87;;;-3.70;99.90;;;;;;5062861;28;20189;-61
2022/12/15 02:44:50;;;;;;;28.70;15.93;;;-3.70;99.90;;;;;;5086743;28;20193;-61
2022/12/15 02:47:44;;;;;;;16.23;12.27;;;-3.70;99.90;;;;;;5069334;28;20309;-61
2022/12/15 02:50:49;;;;;;;10.20;9.33;;;-3.70;99.90;;;;;;5087269;28;20182;-63
2022/12/15 02:53:30;;;;;;;23.10;12.90;;;-3.70;99.90;;;;;;5086173;28;20948;-63
2022/12/15 02:56:14;;;;;;;15.83;12.57;;;-3.70;99.90;;;;;;5081484;28;20602;-62
2022/12/15 02:58:53;;;;;;;18.73;13.10;;;-3.70;99.90;;;;;;5091180;28;20702;-62
2022/12/15 03:01:27;;;;;;;12.73;9.47;;;-3.60;99.90;;;;;;5086299;28;20204;-63
2022/12/15 03:03:55;;;;;;;30.73;16.10;;;-3.70;99.90;;;;;;5091342;28;20212;-62
2022/12/15 03:06:23;;;;;;;17.37;13.07;;;-3.70;99.90;;;;;;5089781;28;20185;-63
2022/12/15 03:08:49;;;;;;;18.20;11.90;;;-3.80;99.90;;;;;;5090189;28;20185;-62
2022/12/15 03:11:14;;;;;;;17.13;11.30;;;-3.80;99.90;;;;;;5073632;28;20212;-62
2022/12/15 03:13:40;;;;;;;13.33;12.00;;;-3.80;99.90;;;;;;5088717;28;20189;-63
2022/12/15 03:16:06;;;;;;;15.13;10.87;;;-3.90;99.90;;;;;;5095428;28;20189;-63
2022/12/15 03:18:31;;;;;;;10.90;10.00;;;-3.90;99.90;;;;;;5060186;28;20200;-63
2022/12/15 03:20:57;;;;;;;13.23;9.27;;;-4.00;99.90;;;;;;5085871;28;20194;-63
2022/12/15 03:23:23;;;;;;;13.70;12.40;;;-4.00;99.90;;;;;;5094441;28;20197;-63
2022/12/15 03:25:49;;;;;;;16.17;13.47;;;-3.90;99.90;;;;;;5077122;28;20192;-63
2022/12/15 03:28:15;;;;;;;16.50;12.00;;;-3.80;99.90;;;;;;5094939;28;20262;-63
2022/12/15 03:30:40;;;;;;;21.77;12.87;;;-3.80;99.90;;;;;;5094335;28;20226;-63
2022/12/15 03:33:07;;;;;;;14.57;13.20;;;-3.80;99.90;;;;;;5082439;28;20189;-63
2022/12/15 03:35:33;;;;;;;15.67;12.87;;;-3.80;99.90;;;;;;5076982;28;20181;-63
2022/12/15 03:37:58;;;;;;;19.83;10.93;;;-3.80;99.90;;;;;;5082956;28;20236;-63
2022/12/15 03:40:24;;;;;;;12.97;11.00;;;-3.80;99.90;;;;;;5074457;28;20186;-64
2022/12/15 03:42:50;;;;;;;20.53;14.43;;;-3.90;99.90;;;;;;5085354;28;20284;-63
2022/12/15 03:45:24;;;;;;;16.23;11.20;;;-3.80;99.90;;;;;;5094528;28;20185;-63
2022/12/15 03:47:50;;;;;;;12.20;10.50;;;-3.80;99.90;;;;;;5087932;28;20192;-63
2022/12/15 03:50:19;;;;;;;14.20;10.93;;;-3.80;99.90;;;;;;5094415;28;20230;-63
2022/12/15 03:52:48;;;;;;;17.27;11.00;;;-3.90;99.90;;;;;;5093223;28;20650;-63
2022/12/15 03:55:14;;;;;;;11.23;10.03;;;-3.90;99.90;;;;;;5091701;28;20195;-63
2022/12/15 03:57:41;;;;;;;20.20;11.67;;;-3.90;99.90;;;;;;5085876;28;20220;-63
2022/12/15 04:00:07;;;;;;;16.17;13.33;;;-3.90;99.90;;;;;;5076192;28;20207;-63
2022/12/15 04:02:33;;;;;;;37.30;12.90;;;-3.90;99.90;;;;;;5093576;28;20649;-63
2022/12/15 04:04:58;;;;;;;14.23;10.73;;;-3.90;99.90;;;;;;5083403;28;20185;-64
2022/12/15 04:07:24;;;;;;;17.07;12.70;;;-3.90;99.90;;;;;;5089925;28;20540;-63
2022/12/15 04:09:50;;;;;;;14.93;9.80;;;-3.90;99.90;;;;;;5093774;28;20635;-63
2022/12/15 04:12:15;;;;;;;16.90;11.43;;;-3.90;99.90;;;;;;5087569;28;20181;-63
2022/12/15 04:14:41;;;;;;;12.60;9.10;;;-3.90;99.90;;;;;;5080395;28;20189;-63
2022/12/15 04:17:11;;;;;;;11.03;8.33;;;-4.00;99.90;;;;;;5072641;28;20357;-63
2022/12/15 04:22:22;;;;;;;17.03;10.80;;;-4.00;99.90;;;;;;5085369;28;20216;-64
2022/12/15 05:33:15;;;;;;;11.93;10.23;;;-4.10;99.90;;;;;;5080392;28;20208;-63
2022/12/15 05:35:41;;;;;;;16.93;14.40;;;-4.10;99.90;;;;;;5088943;28;20189;-62
2022/12/15 05:38:07;;;;;;;13.90;12.57;;;-4.20;99.90;;;;;;5095000;28;20220;-63
2022/12/15 05:40:33;;;;;;;12.93;9.43;;;-4.10;99.90;;;;;;5088004;28;20200;-63
2022/12/15 05:42:59;;;;;;;14.20;11.20;;;-4.10;99.90;;;;;;5088487;28;20549;-63
2022/12/15 05:45:26;;;;;;;10.17;9.27;;;-4.10;99.90;;;;;;5091232;28;20181;-63
2022/12/15 05:47:52;;;;;;;9.33;8.50;;;-4.00;99.90;;;;;;5097454;28;20549;-63
2022/12/15 05:50:18;;;;;;;23.17;11.33;;;-4.10;99.90;;;;;;5090576;28;20782;-63
2022/12/15 05:52:44;;;;;;;9.93;8.87;;;-4.10;99.90;;;;;;5091058;28;20188;-63
2022/12/15 05:55:09;;;;;;;14.80;10.73;;;-4.10;99.90;;;;;;5069466;28;20189;-63
2022/12/15 05:57:35;;;;;;;21.90;14.17;;;-4.10;99.90;;;;;;5085541;28;20664;-63
2022/12/15 06:00:01;;;;;;;10.93;8.03;;;-4.10;99.90;;;;;;5104293;28;20195;-63
2022/12/15 06:02:30;;;;;;;13.10;11.27;;;-4.10;99.90;;;;;;5091695;28;20558;-63
2022/12/15 06:04:55;;;;;;;10.10;8.63;;;-4.00;99.90;;;;;;5090320;28;20264;-63
2022/12/15 06:07:21;;;;;;;13.43;11.23;;;-4.10;99.90;;;;;;5079736;28;20626;-64
2022/12/15 06:09:47;;;;;;;18.83;10.77;;;-4.00;99.90;;;;;;5087444;28;20189;-63
2022/12/15 06:12:13;;;;;;;10.67;9.67;;;-4.00;99.90;;;;;;5060013;28;20583;-63
2022/12/15 06:14:38;;;;;;;9.23;8.43;;;-4.10;99.90;;;;;;5082859;28;20534;-63
2022/12/15 06:17:04;;;;;;;13.63;11.07;;;-4.10;99.90;;;;;;5067575;28;20216;-63
2022/12/15 06:19:30;;;;;;;13.50;9.43;;;-4.10;99.90;;;;;;5092424;28;20211;-64
2022/12/15 06:21:55;;;;;;;15.00;9.90;;;-4.10;99.90;;;;;;5091023;28;20196;-63
2022/12/15 06:24:21;;;;;;;10.57;9.43;;;-4.10;99.90;;;;;;5087479;28;20197;-63
2022/12/15 06:26:47;;;;;;;17.03;11.83;;;-4.10;99.90;;;;;;5091037;28;20193;-63
2022/12/15 06:29:13;;;;;;;22.53;9.70;;;-4.10;99.90;;;;;;5092233;28;20188;-64
2022/12/15 06:31:40;;;;;;;14.77;10.53;;;-4.20;99.90;;;;;;5092049;28;20180;-63
2022/12/15 06:34:09;;;;;;;14.57;10.03;;;-4.20;99.90;;;;;;5057529;28;20189;-63
2022/12/15 06:36:35;;;;;;;13.60;12.20;;;-4.10;99.90;;;;;;5082631;28;20200;-63
2022/12/15 06:39:03;;;;;;;14.57;13.13;;;-4.10;99.90;;;;;;5090796;28;20284;-63
2022/12/15 06:41:29;;;;;;;14.63;10.23;;;-4.10;99.90;;;;;;5090526;28;20233;-63
2022/12/15 06:43:55;;;;;;;12.07;10.90;;;-4.10;99.90;;;;;;5073832;28;20195;-63
2022/12/15 06:46:22;;;;;;;15.50;13.83;;;-4.00;99.90;;;;;;5092184;28;20202;-63
2022/12/15 06:48:48;;;;;;;14.27;10.47;;;-3.70;99.90;;;;;;5091729;28;20185;-63
2022/12/15 06:51:15;;;;;;;9.30;8.47;;;-3.60;99.90;;;;;;5094706;28;20188;-62
2022/12/15 06:53:47;;;;;;;12.40;11.37;;;-3.30;99.90;;;;;;5095288;28;20200;-64
2022/12/15 06:56:20;;;;;;;14.10;11.20;;;-3.40;99.90;;;;;;5095810;28;20189;-63
2022/12/15 06:58:47;;;;;;;11.20;10.03;;;-3.60;99.90;;;;;;5095151;28;20177;-62
2022/12/15 07:01:14;;;;;;;10.93;9.87;;;-3.70;99.90;;;;;;5067120;28;20210;-63
2022/12/15 07:03:40;;;;;;;10.27;9.33;;;-3.70;99.90;;;;;;5088303;28;20185;-63
2022/12/15 07:06:08;;;;;;;16.03;11.03;;;-3.80;99.90;;;;;;5073420;28;20192;-63
2022/12/15 07:08:33;;;;;;;12.27;11.07;;;-3.90;99.90;;;;;;5086923;28;20185;-63
2022/12/15 07:11:03;;;;;;;13.80;11.23;;;-3.90;99.90;;;;;;5090664;28;20234;-63
2022/12/15 07:13:28;;;;;;;17.33;11.70;;;-3.90;99.90;;;;;;5087471;28;20615;-63
2022/12/15 07:16:00;;;;;;;12.93;11.53;;;-3.90;99.90;;;;;;5094107;28;20236;-63
2022/12/15 07:18:28;;;;;;;19.70;15.20;;;-3.80;99.90;;;;;;5094295;28;20242;-63
2022/12/15 07:20:54;;;;;;;19.40;13.67;;;-3.90;99.90;;;;;;5094515;28;20184;-63
2022/12/15 07:23:20;;;;;;;11.83;10.60;;;-3.90;99.90;;;;;;5092662;28;20223;-64
2022/12/15 07:25:45;;;;;;;18.43;13.13;;;-3.90;99.90;;;;;;5086748;28;20220;-64
2022/12/15 07:28:11;;;;;;;12.87;11.60;;;-3.90;99.90;;;;;;5092937;28;20455;-64
2022/12/15 07:30:37;;;;;;;11.07;9.83;;;-3.90;99.90;;;;;;5088619;28;20188;-64
2022/12/15 07:33:04;;;;;;;14.20;12.03;;;-3.90;99.90;;;;;;5094904;28;20191;-64
2022/12/15 07:35:30;;;;;;;16.33;10.83;;;-3.90;99.90;;;;;;5095237;28;20506;-64
2022/12/15 07:37:56;;;;;;;11.50;10.47;;;-3.90;99.90;;;;;;5075262;28;20220;-64
2022/12/15 07:40:22;;;;;;;12.60;11.30;;;-3.90;99.90;;;;;;5103679;28;20198;-64
2022/12/15 07:42:47;;;;;;;13.17;11.87;;;-4.00;99.90;;;;;;5093893;28;20188;-63
2022/12/15 07:45:13;;;;;;;17.67;12.43;;;-4.00;99.90;;;;;;5085540;28;20599;-64
2022/12/15 07:47:39;;;;;;;20.83;12.77;;;-4.00;99.90;;;;;;5083353;28;20203;-63
2022/12/15 07:50:06;;;;;;;15.10;10.30;;;-4.00;99.90;;;;;;5091106;28;20185;-64
2022/12/15 07:52:32;;;;;;;21.10;13.00;;;-4.00;99.90;;;;;;5093124;28;20191;-64
2022/12/15 07:54:57;;;;;;;12.57;10.97;;;-3.90;99.90;;;;;;5087562;28;20186;-64
2022/12/15 07:57:23;;;;;;;21.13;11.20;;;-4.00;99.90;;;;;;5080627;28;20217;-62
2022/12/15 07:59:49;;;;;;;16.17;12.60;;;-4.00;99.90;;;;;;5093998;28;20350;-63
2022/12/15 08:02:15;;;;;;;12.53;11.30;;;-3.90;99.90;;;;;;5090731;28;20186;-63
2022/12/15 08:04:41;;;;;;;8.63;7.93;;;-3.90;99.90;;;;;;5084249;28;20182;-64
2022/12/15 08:07:08;;;;;;;15.23;12.30;;;-3.90;99.90;;;;;;5093923;28;20603;-63
2022/12/15 08:09:34;;;;;;;16.67;13.63;;;-3.90;99.90;;;;;;5093349;28;20530;-63
2022/12/15 08:11:59;;;;;;;13.83;11.47;;;-3.80;99.90;;;;;;5088786;28;20213;-63
2022/12/15 08:14:27;;;;;;;31.13;15.60;;;-3.80;99.90;;;;;;5092356;28;20652;-63
2022/12/15 08:16:53;;;;;;;12.30;10.70;;;-3.80;99.90;;;;;;5086915;28;20258;-63
2022/12/15 08:19:19;;;;;;;14.20;12.37;;;-3.80;99.90;;;;;;5088983;28;20195;-63
2022/12/15 08:21:45;;;;;;;16.83;13.37;;;-3.80;99.90;;;;;;5093601;28;20190;-62
2022/12/15 08:24:13;;;;;;;15.87;13.30;;;-3.70;99.90;;;;;;5092975;28;20234;-65
2022/12/15 08:26:39;;;;;;;16.03;11.00;;;-3.70;99.90;;;;;;5092363;28;20205;-63
2022/12/15 08:29:06;;;;;;;14.57;10.80;;;-3.70;99.90;;;;;;5094153;28;20677;-63
2022/12/15 08:31:33;;;;;;;12.63;11.30;;;-3.70;99.90;;;;;;5090889;28;20228;-62
2022/12/15 08:34:00;;;;;;;10.80;9.53;;;-3.70;99.90;;;;;;5088190;28;20180;-63
2022/12/15 08:36:26;;;;;;;24.63;15.10;;;-3.70;99.90;;;;;;5078392;28;20237;-64
2022/12/15 08:38:54;;;;;;;15.00;13.43;;;-3.60;99.90;;;;;;5092652;28;20191;-63
2022/12/15 08:41:25;;;;;;;19.87;14.67;;;-3.60;99.90;;;;;;5092658;28;20186;-65
2022/12/15 08:43:50;;;;;;;21.70;11.80;;;-3.50;99.90;;;;;;5075738;28;20554;-64
2022/12/15 08:46:18;;;;;;;16.73;12.10;;;-3.40;99.90;;;;;;5084223;28;20191;-62
2022/12/15 08:48:44;;;;;;;15.77;14.20;;;-3.40;99.90;;;;;;5081502;28;20209;-62
2022/12/15 08:51:10;;;;;;;14.73;10.17;;;-3.30;99.90;;;;;;5075895;28;20627;-62
2022/12/15 08:53:37;;;;;;;20.53;13.50;;;-3.30;99.90;;;;;;5085952;28;20618;-65
2022/12/15 08:56:11;;;;;;;18.37;11.63;;;-3.30;99.90;;;;;;5091959;28;20220;-63
2022/12/15 08:58:37;;;;;;;14.73;12.07;;;-3.20;99.90;;;;;;5090721;28;20230;-62
2022/12/15 09:01:08;;;;;;;20.20;14.37;;;-3.20;99.90;;;;;;5093564;28;20191;-62
2022/12/15 09:03:34;;;;;;;14.60;13.10;;;-3.10;99.90;;;;;;5091889;28;20183;-65
2022/12/15 09:06:05;;;;;;;14.53;13.10;;;-2.90;99.90;;;;;;5104057;28;20218;-62
2022/12/15 09:08:32;;;;;;;27.97;16.40;;;-2.90;99.90;;;;;;5082024;28;20206;-63
2022/12/15 09:10:58;;;;;;;25.30;15.27;;;-2.80;99.90;;;;;;5091561;28;20219;-62
2022/12/15 09:13:24;;;;;;;20.17;18.03;;;-2.80;99.90;;;;;;5091326;28;20188;-64
2022/12/15 09:16:16;;;;;;;18.27;13.13;;;-2.70;99.90;;;;;;5091687;28;21449;-64
2022/12/15 09:18:45;;;;;;;16.33;10.97;;;-2.70;99.90;;;;;;5089824;28;20279;-63
2022/12/15 09:21:12;;;;;;;17.50;13.40;;;-2.60;99.90;;;;;;5091539;28;20216;-64
2022/12/15 09:23:39;;;;;;;22.20;14.30;;;-2.50;99.90;;;;;;5093377;28;20191;-63
2022/12/15 09:26:10;;;;;;;16.57;12.00;;;-2.50;99.90;;;;;;5093126;28;20279;-63
2022/12/15 09:28:37;;;;;;;25.73;17.87;;;-2.50;99.90;;;;;;5092369;28;20639;-64
2022/12/15 09:31:08;;;;;;;22.33;17.77;;;-2.40;99.90;;;;;;5072914;28;20215;-64
2022/12/15 09:33:35;;;;;;;22.30;14.43;;;-2.30;99.90;;;;;;5086680;28;20180;-65
2022/12/15 09:36:02;;;;;;;20.10;15.23;;;-2.10;99.90;;;;;;5074442;28;20204;-65
2022/12/15 09:38:28;;;;;;;23.13;17.90;;;-1.80;99.90;;;;;;5091358;28;20574;-62
2022/12/15 09:40:53;;;;;;;21.57;15.07;;;-1.70;99.90;;;;;;5091155;28;20184;-64
2022/12/15 09:43:23;;;;;;;27.37;17.20;;;-1.60;99.90;;;;;;5074228;28;20667;-63
2022/12/15 09:45:55;;;;;;;24.93;15.60;;;-1.60;99.90;;;;;;5092371;28;20184;-63
2022/12/15 09:48:23;;;;;;;24.43;16.93;;;-1.70;99.90;;;;;;5092064;28;20181;-63
2022/12/15 09:50:53;;;;;;;32.00;20.53;;;-1.70;99.90;;;;;;5091372;28;20581;-63
2022/12/15 09:53:21;;;;;;;27.97;18.93;;;-1.60;99.90;;;;;;5092376;28;20619;-62
2022/12/15 09:56:01;;;;;;;35.77;19.07;;;-1.60;99.90;;;;;;5092087;28;20284;-63
2022/12/15 09:58:45;;;;;;;26.47;18.57;;;-1.50;99.90;;;;;;5090870;28;20212;-64
2022/12/15 10:01:16;;;;;;;29.20;20.97;;;-1.50;99.90;;;;;;5091332;28;20294;-65
2022/12/15 10:03:56;;;;;;;28.17;21.63;;;-1.50;99.90;;;;;;5083563;28;20188;-64
2022/12/15 10:06:37;;;;;;;32.13;19.07;;;-1.50;99.90;;;;;;5082446;28;20202;-64
2022/12/15 10:09:20;;;;;;;27.20;17.80;;;-1.40;99.90;;;;;;5085858;28;20657;-66
2022/12/15 10:12:20;;;;;;;29.27;19.30;;;-1.30;99.90;;;;;;5081410;28;20183;-65
2022/12/15 10:15:11;;;;;;;28.27;18.73;;;-1.30;99.90;;;;;;5086516;28;20177;-64
2022/12/15 10:17:56;;;;;;;40.97;19.47;;;-1.20;99.90;;;;;;5085912;28;20234;-65
2022/12/15 10:20:25;;;;;;;22.80;15.87;;;-1.20;99.90;;;;;;5086479;28;20180;-65
2022/12/15 10:22:51;;;;;;;27.83;18.77;;;-1.10;99.90;;;;;;5086856;28;20234;-64
2022/12/15 10:25:24;;;;;;;29.37;22.60;;;-1.00;99.90;;;;;;5087341;28;20184;-64
2022/12/15 10:28:29;;;;;;;34.60;21.33;;;-1.00;99.90;;;;;;5086864;28;20192;-65
2022/12/15 10:31:00;;;;;;;31.27;20.07;;;-0.90;99.90;;;;;;5078753;28;20588;-65
2022/12/15 10:33:40;;;;;;;32.57;22.43;;;-0.90;99.90;;;;;;5082382;28;20177;-64
2022/12/15 10:36:11;;;;;;;30.43;21.97;;;-0.80;99.90;;;;;;5084529;28;20180;-64
2022/12/15 10:38:41;;;;;;;33.27;20.80;;;-0.80;99.90;;;;;;5089314;28;20258;-64
2022/12/15 10:41:09;;;;;;;41.70;25.13;;;-0.80;99.90;;;;;;5091896;28;20590;-65
2022/12/15 10:43:38;;;;;;;41.97;23.53;;;-0.70;99.90;;;;;;5087029;28;20180;-64
2022/12/15 10:46:14;;;;;;;35.83;25.17;;;-0.60;99.90;;;;;;5087680;28;20176;-65
2022/12/15 10:48:42;;;;;;;37.60;25.80;;;-0.50;99.90;;;;;;5084005;28;20197;-65
2022/12/15 10:51:24;;;;;;;40.53;23.83;;;-0.40;99.90;;;;;;5085928;28;20592;-65
2022/12/15 10:54:11;;;;;;;29.13;20.80;;;-0.40;99.90;;;;;;5090607;28;20258;-65
2022/12/15 10:57:15;;;;;;;44.70;26.03;;;-0.40;99.90;;;;;;5089432;28;20214;-65
2022/12/15 10:59:41;;;;;;;29.63;21.90;;;-0.40;99.90;;;;;;5071055;28;20663;-64
2022/12/15 11:02:19;;;;;;;48.13;23.67;;;-0.30;99.90;;;;;;5086347;28;20190;-64
2022/12/15 11:05:15;;;;;;;39.70;24.17;;;-0.30;99.90;;;;;;5091167;28;20255;-66
2022/12/15 11:07:49;;;;;;;32.33;22.67;;;-0.20;99.90;;;;;;5071245;28;20584;-64
2022/12/15 11:12:50;;;;;;;45.13;28.57;;;-0.10;99.90;;;;;;5087941;28;20173;-67
2022/12/15 11:13:16;;;;;;;40.60;27.03;;;0.00;99.90;;;;;;5084641;28;20180;-65
2022/12/15 11:15:50;;;;;;;44.33;26.70;;;0.10;99.90;;;;;;5087167;28;20192;-65
2022/12/15 11:18:36;;;;;;;55.50;27.37;;;0.20;99.90;;;;;;5088857;28;21085;-64
2022/12/15 11:21:08;;;;;;;41.83;25.37;;;0.50;99.90;;;;;;5090315;28;20200;-64
2022/12/15 11:23:46;;;;;;;39.93;23.67;;;0.40;99.90;;;;;;5089435;28;20302;-65
2022/12/15 11:26:24;;;;;;;46.57;25.60;;;0.40;99.90;;;;;;5086242;28;20272;-65
2022/12/15 11:28:57;;;;;;;34.87;22.60;;;0.40;99.90;;;;;;5090287;28;20639;-64
2022/12/15 11:31:41;;;;;;;37.30;23.53;;;0.30;99.90;;;;;;5085858;28;20271;-64
2022/12/15 11:34:44;;;;;;;39.60;24.80;;;0.40;99.90;;;;;;5087284;28;20375;-65
2022/12/15 11:37:45;;;;;;;38.07;25.47;;;0.50;99.90;;;;;;5076462;28;20215;-63
2022/12/15 11:40:30;;;;;;;42.50;25.03;;;0.40;99.90;;;;;;5069290;28;20642;-63
2022/12/15 11:43:23;;;;;;;45.03;27.90;;;0.50;99.90;;;;;;5088485;28;20225;-64
2022/12/15 11:46:12;;;;;;;39.53;23.63;;;0.50;99.90;;;;;;5084640;28;20255;-64
2022/12/15 11:48:50;;;;;;;40.90;25.07;;;0.50;99.90;;;;;;5076144;28;20197;-63
2022/12/15 11:51:23;;;;;;;34.77;23.17;;;0.60;99.90;;;;;;5093858;28;20180;-63
2022/12/15 11:54:09;;;;;;;36.43;25.13;;;0.70;99.90;;;;;;5092027;28;20318;-64
2022/12/15 11:56:48;;;;;;;38.60;27.67;;;0.80;99.90;;;;;;5084675;28;20608;-64
2022/12/15 11:59:35;;;;;;;40.23;26.93;;;0.80;99.90;;;;;;5094545;28;20536;-64
2022/12/15 12:02:22;;;;;;;38.53;26.13;;;0.80;99.90;;;;;;5088265;28;20251;-64
2022/12/15 12:05:15;;;;;;;45.37;27.10;;;0.80;99.90;;;;;;5088523;28;20173;-64
2022/12/15 12:07:44;;;;;;;42.03;25.30;;;1.10;99.90;;;;;;5093263;28;20172;-64
2022/12/15 12:10:47;;;;;;;40.50;26.27;;;1.20;99.90;;;;;;5088925;28;20178;-64
2022/12/15 12:13:35;;;;;;;44.80;24.07;;;1.10;99.90;;;;;;5090606;28;20646;-63
2022/12/15 12:16:39;;;;;;;36.23;23.40;;;1.10;99.90;;;;;;5093073;28;20177;-63
2022/12/15 12:19:21;;;;;;;33.73;23.23;;;1.30;99.90;;;;;;5103566;28;20646;-63
2022/12/15 12:21:59;;;;;;;40.77;25.93;;;1.30;99.90;;;;;;5078655;28;20224;-64
2022/12/15 12:24:38;;;;;;;44.80;24.37;;;1.30;99.90;;;;;;5088669;28;20191;-63
2022/12/15 12:27:26;;;;;;;33.63;25.73;;;1.40;99.90;;;;;;5075454;28;20640;-63
2022/12/15 12:29:59;;;;;;;46.93;27.93;;;1.50;99.90;;;;;;5077420;28;20186;-64
2022/12/15 12:32:28;;;;;;;34.47;23.33;;;1.50;99.90;;;;;;5078772;28;20303;-64
2022/12/15 12:35:01;;;;;;;38.90;24.93;;;1.50;99.90;;;;;;5082523;28;20658;-64
2022/12/15 12:37:36;;;;;;;40.33;24.40;;;1.60;99.90;;;;;;5092534;28;20217;-64
2022/12/15 12:40:06;;;;;;;40.80;25.80;;;1.50;99.90;;;;;;5092562;28;20239;-64
2022/12/15 12:42:59;;;;;;;39.50;22.33;;;1.70;99.90;;;;;;5085741;28;20947;-64
2022/12/15 12:45:35;;;;;;;38.43;25.20;;;1.70;99.90;;;;;;5069881;28;20192;-63
2022/12/15 12:48:24;;;;;;;30.57;20.57;;;1.70;99.90;;;;;;5090665;28;20260;-64
2022/12/15 12:50:52;;;;;;;35.20;25.07;;;1.80;99.90;;;;;;5082625;28;20191;-64
2022/12/15 12:53:31;;;;;;;39.80;24.73;;;1.80;99.90;;;;;;5085572;28;20200;-63
2022/12/15 12:55:56;;;;;;;57.10;38.27;;;1.80;99.90;;;;;;5091235;28;20207;-64
2022/12/15 12:58:36;;;;;;;39.37;23.47;;;1.80;99.90;;;;;;5086310;28;20232;-64
2022/12/15 13:01:11;;;;;;;38.23;25.60;;;1.80;99.90;;;;;;5091835;28;20203;-64
2022/12/15 13:03:44;;;;;;;48.87;23.40;;;2.00;99.90;;;;;;5088775;28;20269;-64
2022/12/15 13:06:34;;;;;;;36.30;23.27;;;2.30;99.90;;;;;;5087707;28;20185;-64
2022/12/15 13:09:35;;;;;;;38.07;24.90;;;2.40;99.90;;;;;;5097885;28;20729;-64
2022/12/15 13:12:01;;;;;;;39.67;25.70;;;2.30;99.90;;;;;;5079527;28;20196;-64
2022/12/15 13:14:35;;;;;;;40.60;24.20;;;2.30;99.90;;;;;;5091627;28;20188;-64
2022/12/15 13:17:05;;;;;;;33.57;24.57;;;2.30;99.90;;;;;;5082138;28;20262;-64
2022/12/15 13:19:56;;;;;;;37.97;22.13;;;2.60;99.90;;;;;;5091979;28;20189;-64
2022/12/15 13:22:23;;;;;;;40.13;22.57;;;2.30;99.90;;;;;;5088595;28;20280;-64
2022/12/15 13:24:50;;;;;;;29.40;20.37;;;2.10;99.90;;;;;;5083720;28;20185;-64
2022/12/15 13:27:16;;;;;;;37.53;23.23;;;2.10;99.90;;;;;;5091594;28;20196;-65
2022/12/15 13:29:53;;;;;;;38.83;24.03;;;2.00;99.90;;;;;;5086711;28;20223;-64
2022/12/15 13:32:43;;;;;;;42.53;24.23;;;2.00;99.90;;;;;;5085149;28;20272;-65
2022/12/15 13:35:11;;;;;;;37.67;24.27;;;2.00;99.90;;;;;;5079099;28;20543;-64
2022/12/15 13:38:01;;;;;;;42.10;25.53;;;2.00;99.90;;;;;;5089879;28;20204;-65
2022/12/15 13:40:33;;;;;;;37.53;21.37;;;2.20;99.90;;;;;;5090054;28;20306;-64
2022/12/15 13:43:28;;;;;;;43.60;24.63;;;2.20;99.90;;;;;;5091456;28;20173;-64
2022/12/15 13:46:01;;;;;;;32.40;23.07;;;2.00;99.90;;;;;;5076524;28;20265;-64
2022/12/15 13:48:35;;;;;;;33.00;22.80;;;2.00;99.90;;;;;;5091029;28;20189;-64
2022/12/15 13:51:05;;;;;;;32.23;21.17;;;2.30;99.90;;;;;;5092190;28;20191;-64
2022/12/15 13:53:39;;;;;;;31.10;20.73;;;2.20;99.90;;;;;;5093038;28;20176;-62
2022/12/15 13:56:10;;;;;;;34.57;20.07;;;2.20;99.90;;;;;;5087724;28;20173;-72
2022/12/15 13:58:46;;;;;;;33.30;20.37;;;2.00;99.90;;;;;;5086886;28;20892;-69
2022/12/15 14:01:22;;;;;;;33.90;20.30;;;2.00;99.90;;;;;;5086287;28;20184;-64
2022/12/15 14:04:02;;;;;;;27.60;17.30;;;1.90;99.90;;;;;;5090255;28;20184;-63
2022/12/15 14:06:39;;;;;;;24.70;17.70;;;1.90;99.90;;;;;;5083070;28;20181;-64
2022/12/15 14:09:05;;;;;;;30.83;19.07;;;1.80;99.90;;;;;;5085189;28;20187;-63
2022/12/15 14:11:34;;;;;;;27.10;18.90;;;1.90;99.90;;;;;;5073965;28;20215;-64
2022/12/15 14:14:00;;;;;;;33.10;18.47;;;1.90;99.90;;;;;;5088215;28;20177;-63
2022/12/15 14:16:31;;;;;;;26.80;19.10;;;1.80;99.90;;;;;;5084850;28;20191;-63
2022/12/15 14:19:03;;;;;;;32.23;19.20;;;1.70;99.90;;;;;;5091744;28;20181;-62
2022/12/15 14:21:29;;;;;;;29.87;19.23;;;1.60;99.90;;;;;;5082385;28;20215;-64
2022/12/15 14:23:56;;;;;;;31.97;19.67;;;1.60;99.90;;;;;;5087420;28;20200;-63
2022/12/15 14:26:29;;;;;;;27.17;17.73;;;1.70;99.90;;;;;;5084862;28;20650;-64
2022/12/15 14:29:01;;;;;;;28.37;16.37;;;1.60;99.90;;;;;;5085736;28;20219;-65
2022/12/15 14:31:27;;;;;;;30.37;20.10;;;1.60;99.90;;;;;;5086025;28;20238;-65
2022/12/15 14:34:02;;;;;;;34.27;18.33;;;1.60;99.90;;;;;;5086265;28;20192;-64
2022/12/15 14:36:29;;;;;;;31.63;18.60;;;1.60;99.90;;;;;;5086398;28;20184;-64
2022/12/15 14:38:59;;;;;;;27.27;18.33;;;1.70;99.90;;;;;;5084461;28;20222;-63
2022/12/15 14:41:34;;;;;;;29.40;17.10;;;1.80;99.90;;;;;;5086360;28;20215;-63
2022/12/15 14:44:04;;;;;;;24.97;18.43;;;1.70;99.90;;;;;;5083822;28;20176;-64
2022/12/15 14:46:30;;;;;;;23.97;15.83;;;1.60;99.90;;;;;;5078916;28;20235;-64
2022/12/15 14:48:59;;;;;;;24.57;17.80;;;1.50;99.90;;;;;;5085461;28;20176;-64
2022/12/15 14:51:27;;;;;;;27.90;16.00;;;1.50;99.90;;;;;;5079373;28;20274;-64
2022/12/15 14:53:53;;;;;;;26.87;16.90;;;1.50;99.90;;;;;;5082367;28;20191;-64
2022/12/15 14:56:19;;;;;;;27.43;17.37;;;1.40;99.90;;;;;;5086951;28;20196;-63
2022/12/15 14:58:51;;;;;;;24.77;15.23;;;1.40;99.90;;;;;;5084133;28;20655;-63
2022/12/15 15:01:23;;;;;;;21.17;15.37;;;1.40;99.90;;;;;;5084763;28;20184;-64
2022/12/15 15:03:57;;;;;;;23.03;15.60;;;1.50;99.90;;;;;;5086911;28;20756;-63
2022/12/15 15:06:29;;;;;;;24.13;15.03;;;1.40;99.90;;;;;;5087885;28;20189;-63
2022/12/15 15:08:54;;;;;;;24.30;15.20;;;1.40;99.90;;;;;;5087392;28;20230;-63
2022/12/15 15:11:28;;;;;;;26.07;14.57;;;1.40;99.90;;;;;;5062421;28;20181;-63
2022/12/15 15:13:56;;;;;;;24.23;15.90;;;1.30;99.90;;;;;;5085272;28;20199;-64
2022/12/15 15:16:22;;;;;;;24.37;16.30;;;1.20;99.90;;;;;;5090425;28;20290;-63
2022/12/15 15:18:50;;;;;;;16.87;14.83;;;1.20;99.90;;;;;;5090513;28;20278;-63
2022/12/15 15:21:20;;;;;;;21.00;16.20;;;1.20;99.90;;;;;;5088793;28;20184;-64